Time;durP1;ratioP1;P1;durP2;ratioP2;P2;SDS_P1;SDS_P2;PMS_P1;PMS_P2;Temp;Humidity;BMP_temperature;BMP_pressure;BME280_temperature;BME280_humidity;BME280_pressure;Samples;Min_cycle;Max_cycle;Signal;HPM_P1;HPM_P2
2021/08/22 00:00:40;;;;;;;10.70;9.90;;;;;;;16.76;100.00;98036.03;5048544;28;20616;-67
2021/08/22 00:03:10;;;;;;;11.60;10.70;;;;;;;16.78;100.00;98033.97;5045703;28;20223;-68
2021/08/22 00:05:38;;;;;;;10.47;9.67;;;;;;;16.78;100.00;98033.97;5049341;28;20204;-66
2021/08/22 00:08:06;;;;;;;10.13;9.33;;;;;;;16.71;100.00;98041.16;5048885;28;20204;-68
2021/08/22 00:10:34;;;;;;;10.20;9.30;;;;;;;16.75;100.00;98041.59;5046406;28;20235;-68
2021/08/22 00:13:02;;;;;;;10.43;9.53;;;;;;;16.73;100.00;98038.28;5061127;28;20213;-67
2021/08/22 00:15:30;;;;;;;11.63;10.73;;;;;;;16.72;100.00;98036.66;5050578;28;20634;-66
2021/08/22 00:17:58;;;;;;;9.30;8.60;;;;;;;16.75;100.00;98034.38;5056253;28;20199;-66
2021/08/22 00:20:28;;;;;;;9.50;8.80;;;;;;;16.72;100.00;98044.69;5049757;28;20244;-67
2021/08/22 00:22:56;;;;;;;11.27;10.37;;;;;;;16.81;100.00;98045.28;5046155;28;20224;-68
2021/08/22 00:25:24;;;;;;;10.57;9.83;;;;;;;16.78;100.00;98042.00;5046951;28;20212;-68
2021/08/22 00:27:51;;;;;;;10.30;9.50;;;;;;;16.74;100.00;98035.41;5047530;28;20203;-67
2021/08/22 00:30:19;;;;;;;10.10;9.37;;;;;;;16.79;100.00;98019.56;5048106;28;20634;-68
2021/08/22 00:32:47;;;;;;;9.80;9.03;;;;;;;16.75;100.00;98012.97;5045756;28;20202;-68
2021/08/22 00:35:17;;;;;;;10.10;9.30;;;;;;;16.73;100.00;98015.03;5048146;28;20655;-68
2021/08/22 00:37:46;;;;;;;9.70;9.07;;;;;;;16.66;100.00;98016.03;5055232;28;20213;-67
2021/08/22 00:40:14;;;;;;;10.10;9.30;;;;;;;16.68;100.00;98012.13;5048032;28;20235;-67
2021/08/22 00:42:42;;;;;;;9.67;8.97;;;;;;;16.83;100.00;98006.59;5050803;28;20689;-68
2021/08/22 00:45:11;;;;;;;10.10;9.27;;;;;;;16.73;100.00;98008.88;5049121;28;20215;-68
2021/08/22 00:47:40;;;;;;;9.57;8.73;;;;;;;16.70;100.00;98020.78;5050360;28;20219;-67
2021/08/22 00:50:09;;;;;;;9.47;8.77;;;;;;;16.70;100.00;98020.78;5044272;28;20494;-68
2021/08/22 00:52:37;;;;;;;9.30;8.60;;;;;;;16.67;100.00;98015.84;5048827;28;20204;-68
2021/08/22 00:55:08;;;;;;;9.77;8.97;;;;;;;16.81;100.00;98021.19;5043943;28;20203;-67
2021/08/22 00:57:36;;;;;;;9.33;8.53;;;;;;;16.71;100.00;98026.97;5049115;28;20560;-67
2021/08/22 01:00:07;;;;;;;9.83;9.13;;;;;;;16.64;100.00;98026.94;5045937;28;20223;-68
2021/08/22 01:02:40;;;;;;;10.93;9.93;;;;;;;16.57;100.00;98028.78;5050726;28;20277;-67
2021/08/22 01:05:14;;;;;;;10.37;9.53;;;;;;;16.46;100.00;98038.22;5047953;28;20635;-68
2021/08/22 01:07:45;;;;;;;12.90;9.83;;;;;;;16.43;100.00;98038.63;5047725;28;20203;-69
2021/08/22 01:10:18;;;;;;;10.80;9.73;;;;;;;16.41;100.00;98033.47;5054612;28;20235;-68
2021/08/22 01:12:48;;;;;;;10.17;9.43;;;;;;;16.41;100.00;98032.66;5050011;28;20658;-68
2021/08/22 01:15:19;;;;;;;9.50;8.80;;;;;;;16.40;100.00;98020.31;5047259;28;20207;-67
2021/08/22 01:17:49;;;;;;;10.20;9.13;;;;;;;16.36;100.00;98019.88;5049694;28;20619;-68
2021/08/22 01:20:24;;;;;;;10.30;9.40;;;;;;;16.32;100.00;98016.78;5048214;28;20231;-68
2021/08/22 01:22:53;;;;;;;10.57;9.70;;;;;;;16.29;100.00;98019.88;5046850;28;20202;-67
2021/08/22 01:25:23;;;;;;;11.10;10.00;;;;;;;16.27;100.00;98023.75;5046267;28;20691;-68
2021/08/22 01:27:52;;;;;;;11.23;10.43;;;;;;;16.30;100.00;98026.88;5047877;28;20584;-68
2021/08/22 01:30:20;;;;;;;10.07;9.27;;;;;;;16.24;100.00;98024.97;5046603;28;20230;-67
2021/08/22 01:32:51;;;;;;;10.77;9.87;;;;;;;16.25;100.00;98021.25;5053431;28;20205;-68
2021/08/22 01:35:23;;;;;;;10.30;9.50;;;;;;;16.24;100.00;98024.16;5058675;28;20356;-68
2021/08/22 01:37:51;;;;;;;11.70;10.80;;;;;;;16.17;100.00;98016.94;5049939;28;20690;-68
2021/08/22 01:40:21;;;;;;;10.50;9.60;;;;;;;16.12;100.00;98013.19;5048898;28;20234;-68
2021/08/22 01:42:50;;;;;;;11.53;10.13;;;;;;;16.17;100.00;98026.78;5053800;28;20198;-68
2021/08/22 01:45:20;;;;;;;11.40;10.33;;;;;;;16.16;100.00;98025.16;5050085;28;20227;-68
2021/08/22 01:47:50;;;;;;;10.50;9.57;;;;;;;16.11;100.00;98028.44;5050371;28;20210;-68
2021/08/22 01:50:20;;;;;;;10.53;9.67;;;;;;;16.13;100.00;98031.72;5046657;28;20305;-68
2021/08/22 01:52:48;;;;;;;11.27;10.37;;;;;;;16.13;100.00;98037.06;5050649;28;20204;-67
2021/08/22 01:55:17;;;;;;;10.03;9.33;;;;;;;16.19;100.00;98046.13;5048787;28;20257;-68
2021/08/22 01:57:45;;;;;;;11.90;10.73;;;;;;;16.15;100.00;98034.19;5050339;28;20227;-67
2021/08/22 02:00:14;;;;;;;11.60;10.43;;;;;;;16.10;100.00;98029.47;5051057;28;20238;-68
2021/08/22 02:02:48;;;;;;;10.27;9.43;;;;;;;16.08;100.00;98028.00;5048617;28;20431;-67
2021/08/22 02:05:18;;;;;;;11.27;10.27;;;;;;;16.15;100.00;98036.84;5050131;28;20224;-68
2021/08/22 02:07:47;;;;;;;10.53;9.73;;;;;;;16.23;100.00;98030.53;5051067;28;20210;-68
2021/08/22 02:10:17;;;;;;;10.37;9.57;;;;;;;16.23;100.00;98023.31;5050733;28;20224;-68
2021/08/22 02:12:45;;;;;;;10.67;9.87;;;;;;;16.15;100.00;98032.34;5052501;28;20202;-68
2021/08/22 02:15:16;;;;;;;10.40;9.60;;;;;;;16.17;100.00;98026.78;5054593;28;20666;-67
2021/08/22 02:17:50;;;;;;;10.27;9.40;;;;;;;16.26;100.00;98044.31;5054256;28;20207;-68
2021/08/22 02:20:20;;;;;;;9.87;9.17;;;;;;;16.30;100.00;98047.41;5048396;28;20230;-68
2021/08/22 02:22:48;;;;;;;11.13;10.23;;;;;;;16.31;100.00;98060.59;5051138;28;20225;-67
2021/08/22 02:25:17;;;;;;;10.20;9.43;;;;;;;16.33;100.00;98065.72;5047553;28;20240;-68
2021/08/22 02:27:45;;;;;;;10.40;9.60;;;;;;;16.36;100.00;98073.34;5051616;28;20201;-68
2021/08/22 02:30:14;;;;;;;10.47;9.77;;;;;;;16.32;100.00;98097.00;5052344;28;20234;-68
2021/08/22 02:32:42;;;;;;;12.07;10.70;;;;;;;16.35;100.00;98171.50;5060240;28;20203;-68
2021/08/22 02:35:10;;;;;;;10.67;9.57;;;;;;;16.46;100.00;98177.31;5052757;28;20203;-68
2021/08/22 02:37:40;;;;;;;8.10;7.50;;;;;;;17.07;100.00;98181.91;5048098;28;20211;-68
2021/08/22 02:40:09;;;;;;;5.93;5.53;;;;;;;17.27;100.00;98182.97;5050601;28;20257;-68
2021/08/22 02:42:37;;;;;;;4.63;4.40;;;;;;;17.40;100.00;98188.34;5051427;28;20202;-68
2021/08/22 02:45:06;;;;;;;6.27;5.03;;;;;;;17.33;100.00;98187.53;5048875;28;20239;-67
2021/08/22 02:47:34;;;;;;;4.50;4.20;;;;;;;17.22;100.00;98191.63;5051365;28;20242;-68
2021/08/22 02:50:02;;;;;;;4.50;3.70;;;;;;;17.01;100.00;98193.41;5052148;28;20698;-68
2021/08/22 02:52:30;;;;;;;3.87;3.57;;;;;;;16.59;100.00;98179.22;5053310;28;20203;-67
2021/08/22 02:54:59;;;;;;;6.53;4.37;;;;;;;16.26;100.00;98194.03;5046251;28;20636;-68
2021/08/22 02:57:27;;;;;;;7.53;4.73;;;;;;;16.01;100.00;98199.00;5054752;28;20215;-68
2021/08/22 02:59:55;;;;;;;5.80;4.77;;;;;;;15.78;100.00;98206.19;5047019;28;20578;-67
2021/08/22 03:02:23;;;;;;;5.53;4.57;;;;;;;15.63;100.00;98205.47;5043059;28;20215;-67
2021/08/22 03:04:51;;;;;;;5.90;4.77;;;;;;;15.31;100.00;98213.75;5044569;28;20768;-66
2021/08/22 03:07:19;;;;;;;5.20;4.70;;;;;;;15.14;100.00;98197.16;5040230;28;20483;-67
2021/08/22 03:09:47;;;;;;;5.73;4.70;;;;;;;15.16;100.00;98181.81;5052733;28;20613;-68
2021/08/22 03:12:17;;;;;;;7.53;4.83;;;;;;;15.14;100.00;98167.78;5049505;28;20218;-67
2021/08/22 03:14:45;;;;;;;5.10;4.70;;;;;;;15.17;100.00;98159.44;5055441;28;20210;-68
2021/08/22 03:17:12;;;;;;;5.87;4.80;;;;;;;15.14;100.00;98137.63;5054804;28;20215;-68
2021/08/22 03:19:40;;;;;;;4.83;4.33;;;;;;;15.18;100.00;98130.88;5052494;28;20206;-69
2021/08/22 03:22:08;;;;;;;7.10;4.80;;;;;;;15.14;100.00;98126.94;5054770;28;20214;-68
2021/08/22 03:24:36;;;;;;;5.03;4.63;;;;;;;15.13;100.00;98122.63;5046459;28;20236;-68
2021/08/22 03:27:05;;;;;;;4.40;4.10;;;;;;;15.16;100.00;98106.22;5046428;28;20599;-68
2021/08/22 03:29:34;;;;;;;5.03;3.97;;;;;;;15.10;100.00;98101.66;5057020;28;20199;-67
2021/08/22 03:32:02;;;;;;;6.77;4.03;;;;;;;15.07;100.00;98104.69;5045912;28;20230;-67
2021/08/22 03:34:30;;;;;;;6.23;4.40;;;;;;;14.99;100.00;98122.50;5054980;28;20478;-69
2021/08/22 03:36:58;;;;;;;4.90;4.50;;;;;;;14.95;100.00;98134.53;5044020;28;20647;-68
2021/08/22 03:39:26;;;;;;;4.70;4.30;;;;;;;14.95;100.00;98126.53;5050168;28;20204;-67
2021/08/22 03:41:53;;;;;;;5.30;4.77;;;;;;;14.96;100.00;98106.84;5048498;28;20230;-68
2021/08/22 03:44:21;;;;;;;5.10;4.53;;;;;;;14.94;100.00;98097.38;5047659;28;20239;-67
2021/08/22 03:46:51;;;;;;;5.23;4.73;;;;;;;15.06;100.00;98090.50;5045683;28;20208;-67
2021/08/22 03:49:19;;;;;;;7.30;5.60;;;;;;;14.98;100.00;98104.00;5047083;28;20199;-70
2021/08/22 03:51:47;;;;;;;5.00;4.53;;;;;;;15.00;100.00;98116.13;5051229;28;20222;-68
2021/08/22 03:54:15;;;;;;;4.83;4.43;;;;;;;14.92;100.00;98118.91;5050057;28;20207;-67
2021/08/22 03:56:43;;;;;;;5.30;4.80;;;;;;;14.92;100.00;98110.91;5050420;28;20203;-66
2021/08/22 03:59:11;;;;;;;8.27;5.20;;;;;;;15.06;100.00;98103.84;5046344;28;20203;-68
2021/08/22 04:01:39;;;;;;;5.20;4.70;;;;;;;14.96;100.00;98112.16;5051173;28;20588;-68
2021/08/22 04:04:08;;;;;;;5.60;5.03;;;;;;;14.96;100.00;98098.81;5051524;28;20203;-68
2021/08/22 04:06:38;;;;;;;5.70;5.20;;;;;;;15.05;100.00;98099.53;5051994;28;20227;-68
2021/08/22 04:09:07;;;;;;;7.10;5.30;;;;;;;15.00;100.00;98101.97;5046858;28;20203;-68
2021/08/22 04:11:35;;;;;;;6.43;5.33;;;;;;;15.03;100.00;98098.91;5050086;28;20238;-67
2021/08/22 04:14:03;;;;;;;5.53;5.03;;;;;;;15.08;100.00;98103.69;5044312;28;20199;-68
2021/08/22 04:16:31;;;;;;;5.03;4.53;;;;;;;15.01;100.00;98107.13;5055042;28;20244;-67
2021/08/22 04:18:59;;;;;;;5.40;5.00;;;;;;;14.99;100.00;98101.16;5055105;28;20204;-68
2021/08/22 04:21:28;;;;;;;6.07;5.30;;;;;;;15.05;100.00;98099.53;5048901;28;20706;-68
2021/08/22 04:23:56;;;;;;;6.43;5.20;;;;;;;15.17;100.00;98102.53;5049625;28;20210;-68
2021/08/22 04:26:24;;;;;;;6.10;5.50;;;;;;;15.09;100.00;98100.81;5045380;28;20238;-68
2021/08/22 04:28:52;;;;;;;6.10;5.60;;;;;;;15.11;100.00;98111.31;5048117;28;20237;-68
2021/08/22 04:31:20;;;;;;;5.33;4.90;;;;;;;15.15;100.00;98117.91;5050160;28;20307;-67
2021/08/22 04:33:48;;;;;;;5.97;5.57;;;;;;;15.11;100.00;98117.47;5050313;28;20602;-69
2021/08/22 04:36:16;;;;;;;6.47;4.80;;;;;;;15.06;100.00;98122.53;5049698;28;20206;-68
2021/08/22 04:38:46;;;;;;;6.77;5.43;;;;;;;15.08;100.00;98127.69;5047578;28;20226;-68
2021/08/22 04:41:17;;;;;;;5.87;5.40;;;;;;;15.03;100.00;98131.78;5045304;28;20619;-68
2021/08/22 04:43:51;;;;;;;6.50;5.03;;;;;;;15.00;100.00;98129.47;5059283;28;20374;-68
2021/08/22 04:46:19;;;;;;;5.47;5.07;;;;;;;15.02;100.00;98131.94;5049579;28;20223;-68
2021/08/22 04:48:47;;;;;;;6.40;5.83;;;;;;;15.03;100.00;98128.25;5050805;28;20439;-67
2021/08/22 04:51:15;;;;;;;6.17;5.57;;;;;;;15.11;100.00;98130.00;5046397;28;20406;-66
2021/08/22 04:53:43;;;;;;;7.23;5.17;;;;;;;15.17;100.00;98122.06;5056356;28;20701;-67
2021/08/22 04:56:13;;;;;;;5.70;5.30;;;;;;;15.12;100.00;98131.66;5046330;28;20200;-67
2021/08/22 04:58:41;;;;;;;5.90;5.27;;;;;;;15.15;100.00;98129.44;5043999;28;20206;-66
2021/08/22 05:01:10;;;;;;;6.87;6.20;;;;;;;15.25;100.00;98118.41;5049853;28;20246;-68
2021/08/22 05:03:38;;;;;;;6.63;6.07;;;;;;;15.28;100.00;98106.53;5051098;28;20204;-66
2021/08/22 05:06:06;;;;;;;6.80;5.87;;;;;;;15.23;100.00;98103.63;5041783;28;20544;-67
2021/08/22 05:08:34;;;;;;;7.10;6.30;;;;;;;15.19;100.00;98111.19;5043448;28;20250;-66
2021/08/22 05:11:02;;;;;;;6.77;6.17;;;;;;;15.23;100.00;98109.78;5043005;28;20227;-68
2021/08/22 05:13:33;;;;;;;6.80;6.27;;;;;;;15.27;100.00;98111.03;5052899;28;20207;-66
2021/08/22 05:16:01;;;;;;;9.07;6.10;;;;;;;15.25;100.00;98114.94;5042184;28;20461;-68
2021/08/22 05:18:29;;;;;;;7.50;6.90;;;;;;;15.32;100.00;98110.47;5049727;28;20211;-67
2021/08/22 05:20:57;;;;;;;7.20;6.50;;;;;;;15.28;100.00;98107.34;5046652;28;20224;-67
2021/08/22 05:23:25;;;;;;;6.60;6.00;;;;;;;15.30;100.00;98104.50;5051044;28;20211;-69
2021/08/22 05:25:53;;;;;;;6.77;6.10;;;;;;;15.25;100.00;98105.06;5056875;28;20284;-66
2021/08/22 05:28:21;;;;;;;7.20;6.50;;;;;;;15.23;100.00;98119.63;5048717;28;20210;-68
2021/08/22 05:30:50;;;;;;;6.60;6.10;;;;;;;15.29;100.00;98111.66;5045995;28;20222;-66
2021/08/22 05:33:18;;;;;;;7.10;6.50;;;;;;;15.28;100.00;98103.88;5049244;28;20523;-67
2021/08/22 05:35:48;;;;;;;6.93;6.30;;;;;;;15.34;100.00;98103.09;5047483;28;20203;-67
2021/08/22 05:38:16;;;;;;;6.77;6.10;;;;;;;15.39;100.00;98099.88;5050174;28;20307;-67
2021/08/22 05:40:43;;;;;;;7.77;7.10;;;;;;;15.44;100.00;98103.59;5047698;28;20230;-70
2021/08/22 05:43:11;;;;;;;11.10;6.93;;;;;;;15.45;100.00;98105.25;5042481;28;20541;-68
2021/08/22 05:45:39;;;;;;;7.77;6.97;;;;;;;15.51;100.00;98111.66;5052101;28;20542;-68
2021/08/22 05:48:09;;;;;;;7.30;6.60;;;;;;;15.54;100.00;98111.28;5046405;28;20200;-68
2021/08/22 05:50:37;;;;;;;6.87;6.37;;;;;;;15.48;100.00;98110.19;5048219;28;20460;-68
2021/08/22 05:53:04;;;;;;;7.40;6.90;;;;;;;15.54;100.00;98113.94;5041830;28;20207;-69
2021/08/22 05:55:32;;;;;;;7.13;6.63;;;;;;;15.77;100.00;98113.72;5048091;28;20297;-67
2021/08/22 05:58:00;;;;;;;7.67;6.97;;;;;;;15.78;100.00;98115.34;5046188;28;20226;-67
2021/08/22 06:00:28;;;;;;;7.83;6.77;;;;;;;15.77;100.00;98119.06;5056343;28;20261;-67
2021/08/22 06:02:56;;;;;;;6.87;6.30;;;;;;;15.80;100.00;98127.69;5055156;28;20204;-69
2021/08/22 06:05:26;;;;;;;7.40;6.80;;;;;;;15.89;100.00;98123.88;5049366;28;20216;-66
2021/08/22 06:07:54;;;;;;;7.97;7.27;;;;;;;16.02;100.00;98123.16;5050564;28;20694;-68
2021/08/22 06:10:23;;;;;;;6.87;6.37;;;;;;;15.93;100.00;98121.66;5048323;28;20219;-67
2021/08/22 06:12:52;;;;;;;7.30;6.70;;;;;;;15.98;100.00;98133.41;5045254;28;20218;-68
2021/08/22 06:15:21;;;;;;;7.27;6.43;;;;;;;16.01;100.00;98135.69;5051439;28;20212;-68
2021/08/22 06:17:49;;;;;;;7.03;6.37;;;;;;;15.93;100.00;98145.72;5044751;28;20678;-67
2021/08/22 06:20:18;;;;;;;7.73;6.73;;;;;;;15.98;100.00;98145.94;5039760;28;20343;-67
2021/08/22 06:22:47;;;;;;;8.13;6.70;;;;;;;15.98;100.00;98160.16;5047485;28;20690;-66
2021/08/22 06:25:18;;;;;;;7.90;7.07;;;;;;;15.97;100.00;98157.66;5047811;28;20699;-67
2021/08/22 06:27:46;;;;;;;7.13;6.63;;;;;;;16.01;100.00;98158.91;5052639;28;20233;-66
2021/08/22 06:30:14;;;;;;;7.70;7.00;;;;;;;16.17;100.00;98157.78;5048880;28;20235;-66
2021/08/22 06:32:42;;;;;;;7.50;6.83;;;;;;;16.20;100.00;98163.59;5045110;28;20210;-66
2021/08/22 06:35:10;;;;;;;7.80;7.13;;;;;;;16.30;100.00;98160.56;5048404;28;20214;-67
2021/08/22 06:37:39;;;;;;;7.40;6.83;;;;;;;16.31;100.00;98159.53;5051867;28;20211;-66
2021/08/22 06:40:10;;;;;;;8.10;7.40;;;;;;;16.42;100.00;98150.13;5048478;28;20533;-67
2021/08/22 06:42:38;;;;;;;7.57;6.97;;;;;;;16.48;100.00;98156.53;5051973;28;20285;-68
2021/08/22 06:45:07;;;;;;;8.27;7.57;;;;;;;16.62;100.00;98155.56;5046998;28;20210;-67
2021/08/22 06:47:35;;;;;;;7.77;7.17;;;;;;;16.73;100.00;98146.13;5052563;28;20222;-67
2021/08/22 06:50:03;;;;;;;6.50;6.00;;;;;;;16.74;100.00;98153.13;5044795;28;20223;-67
2021/08/22 06:52:31;;;;;;;7.13;6.63;;;;;;;17.00;100.00;98148.94;5049588;28;20307;-66
2021/08/22 06:54:59;;;;;;;7.10;6.50;;;;;;;17.00;100.00;98151.63;5050054;28;20207;-67
2021/08/22 06:57:28;;;;;;;7.43;6.83;;;;;;;17.15;100.00;98153.28;5053576;28;20250;-68
2021/08/22 06:59:56;;;;;;;7.00;6.33;;;;;;;17.21;100.00;98152.47;5044857;28;20203;-67
2021/08/22 07:02:24;;;;;;;9.37;6.13;;;;;;;17.32;100.00;98148.38;5053365;28;20211;-67
2021/08/22 07:04:53;;;;;;;5.83;5.20;;;;;;;17.36;100.00;98149.63;5049855;28;20219;-67
2021/08/22 07:07:21;;;;;;;5.60;5.10;;;;;;;17.40;100.00;98144.69;5049892;28;20793;-66
2021/08/22 07:09:49;;;;;;;5.67;5.17;;;;;;;17.45;100.00;98145.72;5045662;28;20943;-68
2021/08/22 07:12:16;;;;;;;5.63;5.23;;;;;;;17.61;100.00;98141.00;5044569;28;20298;-66
2021/08/22 07:14:46;;;;;;;7.37;5.07;;;;;;;17.66;100.00;98149.22;5049104;28;20198;-68
2021/08/22 07:17:19;;;;;;;4.63;4.30;;;;;;;17.85;100.00;98144.91;5049631;28;20210;-68
2021/08/22 07:19:48;;;;;;;4.53;4.23;;;;;;;17.94;100.00;98134.78;5044917;28;20213;-66
2021/08/22 07:22:16;;;;;;;4.43;4.13;;;;;;;17.92;100.00;98147.56;5048944;28;20208;-66
2021/08/22 07:24:44;;;;;;;4.43;4.10;;;;;;;17.91;100.00;98148.63;5047276;28;20659;-68
2021/08/22 07:27:11;;;;;;;5.00;4.60;;;;;;;17.85;100.00;98150.25;5044918;28;21007;-67
2021/08/22 07:29:39;;;;;;;4.97;4.67;;;;;;;17.85;100.00;98149.44;5055330;28;20199;-67
2021/08/22 07:32:09;;;;;;;4.70;4.40;;;;;;;17.90;100.00;98155.00;5053555;28;20291;-68
2021/08/22 07:34:37;;;;;;;5.33;4.90;;;;;;;17.84;100.00;98151.28;5054879;28;20753;-69
2021/08/22 07:37:05;;;;;;;4.53;4.23;;;;;;;17.75;100.00;98155.22;5053083;28;20911;-69
2021/08/22 07:39:33;;;;;;;4.30;4.00;;;;;;;17.89;100.00;98158.72;5041855;28;20238;-68
2021/08/22 07:42:01;;;;;;;5.10;4.23;;;;;;;17.79;100.00;98148.41;5049133;28;20600;-68
2021/08/22 07:44:29;;;;;;;4.63;4.23;;;;;;;17.78;100.00;98150.25;5046054;28;20666;-69
2021/08/22 07:46:57;;;;;;;5.27;4.10;;;;;;;17.71;100.00;98145.94;5048803;28;20227;-69
2021/08/22 07:49:26;;;;;;;4.03;3.83;;;;;;;17.71;100.00;98152.13;5052183;28;21022;-69
2021/08/22 07:51:54;;;;;;;4.30;3.90;;;;;;;17.72;100.00;98147.59;5047383;28;20340;-69
2021/08/22 07:54:22;;;;;;;4.07;3.77;;;;;;;17.53;100.00;98151.91;5050287;28;20242;-71
2021/08/22 07:56:50;;;;;;;4.37;4.03;;;;;;;17.52;100.00;98147.59;5047789;28;20228;-69
2021/08/22 07:59:18;;;;;;;4.00;3.70;;;;;;;17.34;100.00;98135.59;5047936;28;20211;-71
2021/08/22 08:01:46;;;;;;;4.13;3.80;;;;;;;17.35;100.00;98148.81;5047710;28;20227;-68
2021/08/22 08:04:14;;;;;;;5.90;4.73;;;;;;;17.44;100.00;98165.50;5044281;28;20214;-68
2021/08/22 08:06:43;;;;;;;4.53;4.23;;;;;;;17.39;100.00;98165.28;5050905;28;20201;-70
2021/08/22 08:09:11;;;;;;;4.67;4.27;;;;;;;17.51;100.00;98168.19;5045949;28;20628;-73
2021/08/22 08:11:39;;;;;;;4.43;4.03;;;;;;;17.69;100.00;98164.91;5052404;28;20228;-69
2021/08/22 08:14:07;;;;;;;5.20;4.80;;;;;;;17.86;100.00;98156.47;5048797;28;20214;-70
2021/08/22 08:16:35;;;;;;;4.27;3.97;;;;;;;17.88;100.00;98155.19;5045412;28;20207;-69
2021/08/22 08:19:03;;;;;;;4.50;4.10;;;;;;;17.94;100.00;98157.03;5047286;28;20258;-69
2021/08/22 08:21:31;;;;;;;4.93;4.63;;;;;;;17.94;100.00;98164.28;5050180;28;20228;-69
2021/08/22 08:24:01;;;;;;;4.83;4.30;;;;;;;18.01;100.00;98162.44;5053538;28;20215;-71
2021/08/22 08:26:28;;;;;;;4.70;4.40;;;;;;;17.98;100.00;98170.88;5046737;28;20220;-70
2021/08/22 08:28:56;;;;;;;4.07;3.60;;;;;;;17.93;100.00;98168.00;5051297;28;20475;-69
2021/08/22 08:31:24;;;;;;;4.17;3.77;;;;;;;17.98;100.00;98167.34;5042655;28;20227;-69
2021/08/22 08:33:52;;;;;;;4.40;4.17;;;;;;;18.07;100.00;98166.16;5043869;28;20211;-68
2021/08/22 08:36:20;;;;;;;4.53;4.23;;;;;;;18.18;100.00;98170.88;5051200;28;20300;-68
2021/08/22 08:38:48;;;;;;;9.80;4.70;;;;;;;18.32;100.00;98169.00;5046925;28;20204;-68
2021/08/22 08:41:17;;;;;;;3.97;3.77;;;;;;;18.51;100.00;98164.63;5052546;28;20219;-68
2021/08/22 08:43:46;;;;;;;4.17;3.90;;;;;;;18.63;100.00;98164.78;5051258;28;20613;-68
2021/08/22 08:46:15;;;;;;;5.07;4.67;;;;;;;18.88;100.00;98160.56;5046514;28;20204;-68
2021/08/22 08:48:46;;;;;;;4.77;4.20;;;;;;;19.11;100.00;98159.22;5055490;28;20235;-68
2021/08/22 08:51:21;;;;;;;4.60;4.30;;;;;;;19.34;100.00;98162.19;5058185;28;20746;-68
2021/08/22 08:53:50;;;;;;;4.83;4.43;;;;;;;19.41;100.00;98158.63;5044755;28;20207;-68
2021/08/22 08:56:19;;;;;;;4.30;4.00;;;;;;;19.57;100.00;98168.84;5048104;28;20615;-69
2021/08/22 08:58:47;;;;;;;4.00;3.70;;;;;;;19.38;100.00;98171.44;5045690;28;20219;-69
2021/08/22 09:01:15;;;;;;;4.70;4.40;;;;;;;19.35;100.00;98171.88;5056106;28;20241;-70
2021/08/22 09:03:59;;;;;;;4.50;4.20;;;;;;;19.22;100.00;98178.16;5050544;28;20259;-66
2021/08/22 09:06:54;;;;;;;4.13;3.77;;;;;;;19.25;100.00;98166.16;5047328;28;20573;-67
2021/08/22 09:10:14;;;;;;;4.53;4.13;;;;;;;19.36;100.00;98175.41;5034530;28;20238;-67
2021/08/22 09:13:19;;;;;;;5.10;4.70;;;;;;;19.69;100.00;98173.50;5050111;28;20557;-69
2021/08/22 09:16:23;;;;;;;4.43;4.10;;;;;;;20.07;100.00;98170.72;5049643;28;20210;-69
2021/08/22 09:19:29;;;;;;;4.93;4.27;;;;;;;20.17;100.00;98170.22;5020672;28;20215;-69
2021/08/22 09:22:49;;;;;;;4.67;4.27;;;;;;;20.52;100.00;98168.84;5048708;28;20237;-70
2021/08/22 09:25:56;;;;;;;5.43;4.40;;;;;;;20.34;100.00;98173.16;5050748;28;20210;-68
2021/08/22 09:29:14;;;;;;;5.20;4.70;;;;;;;20.12;100.00;98166.56;5057229;28;20254;-69
2021/08/22 09:32:27;;;;;;;5.73;4.97;;;;;;;20.03;100.00;98166.03;5049899;28;20233;-66
2021/08/22 09:35:37;;;;;;;5.93;5.40;;;;;;;19.91;100.00;98171.28;5044595;28;20199;-68
2021/08/22 09:38:40;;;;;;;5.27;4.87;;;;;;;19.63;100.00;98172.50;5039669;28;20203;-68
2021/08/22 09:41:54;;;;;;;5.40;4.90;;;;;;;19.34;100.00;98172.91;5050516;28;20704;-68
2021/08/22 09:45:04;;;;;;;6.00;5.17;;;;;;;19.28;100.00;98171.09;5043143;28;22262;-67
2021/08/22 09:48:22;;;;;;;6.13;5.57;;;;;;;19.24;100.00;98175.28;5023317;28;20207;-65
2021/08/22 09:51:39;;;;;;;5.77;5.37;;;;;;;19.06;100.00;98176.00;4988209;28;20227;-72
2021/08/22 09:55:00;;;;;;;6.17;5.67;;;;;;;18.96;100.00;98171.03;4988884;28;20213;-69
2021/08/22 09:58:02;;;;;;;6.30;5.80;;;;;;;19.00;100.00;98180.34;5046790;28;20880;-70
2021/08/22 10:01:14;;;;;;;6.57;5.97;;;;;;;18.66;100.00;98167.03;5049136;28;20873;-70
2021/08/22 10:04:33;;;;;;;6.80;6.30;;;;;;;18.44;100.00;98155.75;5048395;28;20210;-72
2021/08/22 10:07:12;;;;;;;7.50;6.90;;;;;;;18.39;100.00;98157.41;5017925;28;20232;-70
2021/08/22 10:09:44;;;;;;;8.00;7.40;;;;;;;18.22;100.00;98168.63;5050554;28;20717;-70
2021/08/22 10:12:12;;;;;;;6.97;6.37;;;;;;;18.15;100.00;98179.34;5052784;28;20210;-70
2021/08/22 10:14:40;;;;;;;8.73;7.93;;;;;;;17.90;100.00;98179.13;5052690;28;20211;-69
2021/08/22 10:17:17;;;;;;;7.87;7.37;;;;;;;17.87;100.00;98176.88;5050534;28;20207;-69
2021/08/22 10:19:47;;;;;;;8.37;7.57;;;;;;;18.02;100.00;98174.81;5048544;28;20195;-71
2021/08/22 10:22:17;;;;;;;7.77;7.17;;;;;;;18.13;100.00;98177.88;5046998;28;20566;-70
2021/08/22 10:24:52;;;;;;;8.83;8.10;;;;;;;18.32;100.00;98181.56;5046321;28;20262;-69
2021/08/22 10:27:46;;;;;;;7.77;7.17;;;;;;;18.41;100.00;98174.97;5054434;28;20222;-69
2021/08/22 10:30:16;;;;;;;8.90;8.20;;;;;;;18.70;100.00;98175.47;5038227;28;20246;-69
2021/08/22 10:33:17;;;;;;;8.20;7.60;;;;;;;18.75;100.00;98169.47;5051633;28;20203;-68
2021/08/22 10:35:45;;;;;;;9.10;8.30;;;;;;;19.17;100.00;98169.13;5046063;28;20204;-72
2021/08/22 10:38:29;;;;;;;8.63;7.93;;;;;;;19.43;100.00;98160.06;5048966;28;20200;-70
2021/08/22 10:40:59;;;;;;;8.20;7.50;;;;;;;19.78;100.00;98162.28;5045139;28;20884;-70
2021/08/22 10:43:45;;;;;;;7.53;6.93;;;;;;;19.94;100.00;98152.88;5051118;28;20225;-69
2021/08/22 10:46:16;;;;;;;7.53;6.77;;;;;;;19.97;100.00;98156.97;5046327;28;20837;-72
2021/08/22 10:49:00;;;;;;;6.57;6.07;;;;;;;20.02;100.00;98156.31;5047209;28;20222;-70
2021/08/22 10:51:28;;;;;;;6.63;6.13;;;;;;;20.15;100.00;98150.78;5047054;28;20730;-68
2021/08/22 10:54:21;;;;;;;6.90;6.40;;;;;;;20.77;100.00;98152.59;5046696;28;20211;-71
2021/08/22 10:56:49;;;;;;;6.30;5.80;;;;;;;20.62;100.00;98139.50;5025441;28;20239;-71
2021/08/22 10:59:18;;;;;;;6.93;6.27;;;;;;;20.68;100.00;98138.59;5051606;28;20203;-70
2021/08/22 11:01:46;;;;;;;5.80;5.33;;;;;;;20.44;100.00;98148.41;5046342;28;20215;-69
2021/08/22 11:04:17;;;;;;;5.60;5.30;;;;;;;20.43;100.00;98149.47;5057081;28;20538;-70
2021/08/22 11:06:56;;;;;;;6.30;5.80;;;;;;;20.29;100.00;98150.66;5048648;28;20658;-69
2021/08/22 11:09:46;;;;;;;5.90;5.30;;;;;;;20.00;100.00;98144.94;5049177;28;20292;-71
2021/08/22 11:12:25;;;;;;;6.20;5.73;;;;;;;19.67;100.00;98147.69;5050661;28;20199;-68
2021/08/22 11:14:53;;;;;;;5.47;5.07;;;;;;;19.81;100.00;98136.78;5044895;28;20618;-70
2021/08/22 11:17:21;;;;;;;6.40;6.00;;;;;;;19.61;100.00;98140.50;5051739;28;21039;-68
2021/08/22 11:19:51;;;;;;;6.07;5.60;;;;;;;19.60;100.00;98140.69;5049176;28;20202;-70
2021/08/22 11:22:24;;;;;;;6.40;5.80;;;;;;;19.57;100.00;98135.75;5049663;28;20200;-71
2021/08/22 11:24:53;;;;;;;5.80;5.40;;;;;;;19.39;100.00;98137.34;5048257;28;20203;-71
2021/08/22 11:27:21;;;;;;;6.27;5.70;;;;;;;19.36;100.00;98133.22;5048085;28;20679;-69
2021/08/22 11:29:54;;;;;;;6.60;6.20;;;;;;;19.44;100.00;98120.56;5049250;28;20226;-68
2021/08/22 11:32:22;;;;;;;6.77;6.23;;;;;;;19.38;100.00;98115.03;5043897;28;20294;-69
2021/08/22 11:34:51;;;;;;;6.20;5.70;;;;;;;19.73;100.00;98115.56;5048895;28;20199;-69
2021/08/22 11:37:20;;;;;;;6.47;5.90;;;;;;;19.83;100.00;98128.53;5048458;28;20207;-69
2021/08/22 11:39:49;;;;;;;5.63;5.13;;;;;;;20.00;100.00;98115.38;5055101;28;20198;-69
2021/08/22 11:42:21;;;;;;;5.83;5.43;;;;;;;20.27;100.00;98112.38;5048664;28;20227;-71
2021/08/22 11:44:49;;;;;;;5.57;5.27;;;;;;;20.27;100.00;98113.22;5043341;28;20210;-70
2021/08/22 11:47:17;;;;;;;5.73;5.40;;;;;;;20.59;100.00;98106.81;5048149;28;20203;-70